createdAt,value
2018-05-23T00:00:28.730Z,6.07
2018-05-23T00:01:35.275Z,6.40
2018-05-23T00:02:41.046Z,5.82
2018-05-23T00:03:46.803Z,5.40
2018-05-23T00:04:53.015Z,5.82
2018-05-23T00:05:59.202Z,5.57
2018-05-23T00:07:04.988Z,6.05
2018-05-23T00:08:10.741Z,5.50
2018-05-23T00:09:16.507Z,6.03
2018-05-23T00:10:23.037Z,5.60
2018-05-23T00:11:28.791Z,5.90
2018-05-23T00:12:34.585Z,5.93
2018-05-23T00:13:40.375Z,5.85
2018-05-23T00:14:46.127Z,5.53
2018-05-23T00:15:52.856Z,5.90
2018-05-23T00:16:58.614Z,5.70
2018-05-23T00:18:04.392Z,5.87
2018-05-23T00:19:10.152Z,5.65
2018-05-23T00:20:15.908Z,6.57
2018-05-23T00:21:21.668Z,5.85
2018-05-23T00:22:27.420Z,5.72
2018-05-23T00:23:33.186Z,6.45
2018-05-23T00:24:39.703Z,5.90
2018-05-23T00:25:45.475Z,5.55
2018-05-23T00:26:52.003Z,6.15
2018-05-23T00:27:57.773Z,5.90
2018-05-23T00:29:04.325Z,5.62
2018-05-23T00:30:09.874Z,6.05
2018-05-23T00:31:15.649Z,6.05
2018-05-23T00:32:21.402Z,5.95
2018-05-23T00:33:27.390Z,6.28
2018-05-23T00:34:33.163Z,5.40
2018-05-23T00:35:38.931Z,5.22
2018-05-23T00:36:44.687Z,5.85
2018-05-23T00:37:50.518Z,6.22
2018-05-23T00:38:56.419Z,5.62
2018-05-23T00:40:02.980Z,6.35
2018-05-23T00:41:09.297Z,5.93
2018-05-23T00:42:15.060Z,5.57
2018-05-23T00:43:21.259Z,6.47
2018-05-23T00:44:27.024Z,5.75
2018-05-23T00:45:32.807Z,5.60
2018-05-23T00:46:38.550Z,6.05
2018-05-23T00:47:44.297Z,6.43
2018-05-23T00:48:50.829Z,5.45
2018-05-23T00:49:56.594Z,5.85
2018-05-23T00:51:02.369Z,6.25
2018-05-23T00:52:07.866Z,6.80
2018-05-23T00:53:13.618Z,6.60
2018-05-23T00:54:20.132Z,5.93
2018-05-23T00:55:34.726Z,6.32
2018-05-23T00:56:41.270Z,6.15
2018-05-23T00:57:47.036Z,5.70
2018-05-23T00:58:53.545Z,6.82
2018-05-23T00:59:59.657Z,6.40
2018-05-23T01:01:05.407Z,6.22
2018-05-23T01:02:11.195Z,6.62
2018-05-23T01:03:16.935Z,6.65
2018-05-23T01:04:22.690Z,6.95
2018-05-23T01:05:28.454Z,6.40
2018-05-23T01:06:34.970Z,7.50
2018-05-23T01:07:40.754Z,6.40
2018-05-23T01:08:47.259Z,6.80
2018-05-23T01:09:53.015Z,7.30
2018-05-23T01:10:58.555Z,6.80
2018-05-23T01:12:04.355Z,5.87
2018-05-23T01:13:09.791Z,7.12
2018-05-23T01:14:15.610Z,7.20
2018-05-23T01:15:22.124Z,6.30
2018-05-23T01:16:27.894Z,6.37
2018-05-23T01:17:33.646Z,7.10
2018-05-23T01:18:39.419Z,6.65
2018-05-23T01:19:45.176Z,6.32
2018-05-23T01:20:50.389Z,6.57
2018-05-23T01:21:56.132Z,7.37
2018-05-23T01:23:01.890Z,5.80
2018-05-23T01:24:07.678Z,6.05
2018-05-23T01:25:14.184Z,7.00
2018-05-23T01:26:19.933Z,6.62
2018-05-23T01:27:25.689Z,6.62
2018-05-23T01:28:31.437Z,6.60
2018-05-23T01:29:37.206Z,6.82
2018-05-23T01:30:42.946Z,7.03
2018-05-23T01:31:48.699Z,7.20
2018-05-23T01:32:55.206Z,6.80
2018-05-23T01:34:00.971Z,7.07
2018-05-23T01:35:06.739Z,6.75
2018-05-23T01:36:13.265Z,7.12
2018-05-23T01:37:19.016Z,7.55
2018-05-23T01:38:25.693Z,6.47
2018-05-23T01:39:32.207Z,7.50
2018-05-23T01:40:37.983Z,6.82
2018-05-23T01:41:43.745Z,7.15
2018-05-23T01:42:50.251Z,7.28
2018-05-23T01:43:55.459Z,7.20
2018-05-23T01:45:00.961Z,7.15
2018-05-23T01:46:07.496Z,7.25
2018-05-23T01:47:13.256Z,6.55
2018-05-23T01:48:19.005Z,7.05
2018-05-23T01:49:28.466Z,6.60
2018-05-23T01:50:34.215Z,7.53
2018-05-23T01:51:39.983Z,7.20
2018-05-23T01:52:45.735Z,7.03
2018-05-23T01:53:51.474Z,7.78
2018-05-23T01:54:57.232Z,6.87
2018-05-23T01:56:02.976Z,7.45
2018-05-23T01:57:09.510Z,7.43
2018-05-23T01:58:15.256Z,6.72
2018-05-23T01:59:21.025Z,7.15
2018-05-23T02:00:27.543Z,7.22
2018-05-23T02:01:33.288Z,7.78
2018-05-23T02:02:39.282Z,7.50
2018-05-23T02:03:45.800Z,7.28
2018-05-23T02:04:51.769Z,7.47
2018-05-23T02:05:57.511Z,7.18
2018-05-23T02:07:04.026Z,7.35
2018-05-23T02:08:09.791Z,7.12
2018-05-23T02:09:15.545Z,7.60
2018-05-23T02:10:21.321Z,7.93
2018-05-23T02:11:28.184Z,7.75
2018-05-23T02:12:33.939Z,7.35
2018-05-23T02:13:39.931Z,7.18
2018-05-23T02:14:45.685Z,8.02
2018-05-23T02:15:51.435Z,8.43
2018-05-23T02:16:57.191Z,8.07
2018-05-23T02:18:03.965Z,8.18
2018-05-23T02:19:11.395Z,8.00
2018-05-23T02:20:17.152Z,7.90
2018-05-23T02:21:22.900Z,7.05
2018-05-23T02:22:28.659Z,7.95
2018-05-23T02:23:35.192Z,7.93
2018-05-23T02:24:40.972Z,8.73
2018-05-23T02:25:46.400Z,8.00
2018-05-23T02:26:52.923Z,7.82
2018-05-23T02:27:58.675Z,8.40
2018-05-23T02:29:04.431Z,7.97
2018-05-23T02:30:10.242Z,8.32
2018-05-23T02:31:15.987Z,8.25
2018-05-23T02:32:21.765Z,8.07
2018-05-23T02:33:28.296Z,8.15
2018-05-23T02:34:34.033Z,7.87
2018-05-23T02:35:39.822Z,8.85
2018-05-23T02:36:45.576Z,8.40
2018-05-23T02:37:51.555Z,8.05
2018-05-23T02:38:57.304Z,9.05
2018-05-23T02:40:03.120Z,8.00
2018-05-23T02:41:08.896Z,8.93
2018-05-23T02:42:14.642Z,8.55
2018-05-23T02:43:20.620Z,8.60
2018-05-23T02:44:27.351Z,8.75
2018-05-23T02:45:33.108Z,7.87
2018-05-23T02:46:39.316Z,8.55
2018-05-23T02:47:45.079Z,8.15
2018-05-23T02:48:50.819Z,8.05
2018-05-23T02:49:56.601Z,8.50
2018-05-23T02:51:03.128Z,8.48
2018-05-23T02:52:08.916Z,9.05
2018-05-23T02:53:14.670Z,9.23
2018-05-23T02:54:20.463Z,9.02
2018-05-23T02:55:26.235Z,8.93
2018-05-23T02:56:31.983Z,9.05
2018-05-23T02:57:37.777Z,9.25
2018-05-23T02:58:43.714Z,8.73
2018-05-23T02:59:50.413Z,9.32
2018-05-23T03:00:56.487Z,9.30
2018-05-23T03:02:02.241Z,8.82
2018-05-23T03:03:08.158Z,8.77
2018-05-23T03:04:14.764Z,9.00
2018-05-23T03:05:20.512Z,9.00
2018-05-23T03:06:26.268Z,9.23
2018-05-23T03:07:32.085Z,10.20
2018-05-23T03:08:38.047Z,8.70
2018-05-23T03:09:43.818Z,8.63
2018-05-23T03:10:50.344Z,9.85
2018-05-23T03:11:56.094Z,8.50
2018-05-23T03:13:01.847Z,8.40
2018-05-23T03:14:07.623Z,8.93
2018-05-23T03:15:13.383Z,8.60
2018-05-23T03:16:19.127Z,9.00
2018-05-23T03:17:24.877Z,8.63
2018-05-23T03:18:30.625Z,8.85
2018-05-23T03:19:36.415Z,9.45
2018-05-23T03:20:42.951Z,10.00
2018-05-23T03:21:48.722Z,9.27
2018-05-23T03:22:54.488Z,9.75
2018-05-23T03:24:00.239Z,9.70
2018-05-23T03:25:05.358Z,10.00
2018-05-23T03:26:11.111Z,9.07
2018-05-23T03:27:16.874Z,9.73
2018-05-23T03:28:22.631Z,9.23
2018-05-23T03:29:28.400Z,9.77
2018-05-23T03:30:34.181Z,9.45
2018-05-23T03:31:39.988Z,9.98
2018-05-23T03:32:45.774Z,9.43
2018-05-23T03:33:51.527Z,10.02
2018-05-23T03:34:57.318Z,10.10
2018-05-23T03:36:03.107Z,11.02
2018-05-23T03:37:08.876Z,9.98
2018-05-23T03:38:15.401Z,9.60
2018-05-23T03:39:21.195Z,9.45
2018-05-23T03:40:27.707Z,9.07
2018-05-23T03:41:33.480Z,8.60
2018-05-23T03:42:40.010Z,10.50
2018-05-23T03:43:45.560Z,8.75
2018-05-23T03:44:51.307Z,9.98
2018-05-23T03:45:58.048Z,9.90
2018-05-23T03:47:03.832Z,9.75
2018-05-23T03:48:10.355Z,9.18
2018-05-23T03:49:16.103Z,9.27
2018-05-23T03:50:21.859Z,8.68
2018-05-23T03:51:27.611Z,9.52
2018-05-23T03:52:34.165Z,9.70
2018-05-23T03:53:40.697Z,9.60
2018-05-23T03:54:46.448Z,9.30
2018-05-23T03:55:52.206Z,9.35
2018-05-23T03:56:58.946Z,10.05
2018-05-23T03:58:04.722Z,9.75
2018-05-23T03:59:11.623Z,9.30
2018-05-23T04:00:33.919Z,9.65
2018-05-23T04:01:56.552Z,9.52
2018-05-23T04:03:19.863Z,10.15
2018-05-23T04:04:42.377Z,8.90
2018-05-23T04:06:04.868Z,8.90
2018-05-23T04:07:30.240Z,8.63
2018-05-23T04:08:35.835Z,10.43
2018-05-23T04:09:41.711Z,9.60
2018-05-23T04:10:47.594Z,9.25
2018-05-23T04:11:54.135Z,10.65
2018-05-23T04:12:59.914Z,10.00
2018-05-23T04:14:07.036Z,9.23
2018-05-23T04:15:12.789Z,9.02
2018-05-23T04:16:18.563Z,9.23
2018-05-23T04:17:25.084Z,10.32
2018-05-23T04:18:30.575Z,9.80
2018-05-23T04:19:36.352Z,10.35
2018-05-23T04:20:42.167Z,9.70
2018-05-23T04:21:48.254Z,9.05
2018-05-23T04:22:54.055Z,9.68
2018-05-23T04:23:59.819Z,10.02
2018-05-23T04:25:05.720Z,9.77
2018-05-23T04:26:12.242Z,10.60
2018-05-23T04:27:18.004Z,9.00
2018-05-23T04:28:23.769Z,9.63
2018-05-23T04:29:29.541Z,10.18
2018-05-23T04:30:35.367Z,9.30
2018-05-23T04:31:41.356Z,10.52
2018-05-23T04:32:47.140Z,9.70
2018-05-23T04:33:53.119Z,9.60
2018-05-23T04:34:58.887Z,10.57
2018-05-23T04:36:04.682Z,9.40
2018-05-23T04:37:10.445Z,9.98
2018-05-23T04:38:16.208Z,9.30
2018-05-23T04:39:22.076Z,9.38
2018-05-23T04:40:28.713Z,9.70
2018-05-23T04:41:34.484Z,8.80
2018-05-23T04:42:40.247Z,10.00
2018-05-23T04:43:46.016Z,9.20
2018-05-23T04:44:52.562Z,9.90
2018-05-23T04:45:58.340Z,9.80
2018-05-23T04:47:04.144Z,10.07
2018-05-23T04:48:09.908Z,10.20
2018-05-23T04:49:15.666Z,9.35
2018-05-23T04:50:21.459Z,10.13
2018-05-23T04:51:27.987Z,9.65
2018-05-23T04:52:33.856Z,10.20
2018-05-23T04:53:40.388Z,9.60
2018-05-23T04:54:45.821Z,10.40
2018-05-23T04:55:51.603Z,9.05
2018-05-23T04:56:57.370Z,8.98
2018-05-23T04:58:03.188Z,9.43
2018-05-23T04:59:09.167Z,9.77
2018-05-23T05:00:15.846Z,9.02
2018-05-23T05:01:21.601Z,8.95
2018-05-23T05:02:27.388Z,9.85
2018-05-23T05:03:33.178Z,9.70
2018-05-23T05:04:38.927Z,8.80
2018-05-23T05:05:44.688Z,9.45
2018-05-23T05:06:51.203Z,9.30
2018-05-23T05:07:56.978Z,9.02
2018-05-23T05:09:02.769Z,8.43
2018-05-23T05:10:08.546Z,10.10
2018-05-23T05:11:14.519Z,9.70
2018-05-23T05:12:21.374Z,10.85
2018-05-23T05:13:27.926Z,9.57
2018-05-23T05:14:33.940Z,9.60
2018-05-23T05:15:39.683Z,8.73
2018-05-23T05:16:45.458Z,9.57
2018-05-23T05:17:51.231Z,9.27
2018-05-23T05:18:57.771Z,9.75
2018-05-23T05:20:03.563Z,9.77
2018-05-23T05:21:09.328Z,8.88
2018-05-23T05:22:15.092Z,10.43
2018-05-23T05:23:20.861Z,9.65
2018-05-23T05:24:27.384Z,9.52
2018-05-23T05:25:32.823Z,9.20
2018-05-23T05:26:38.605Z,10.32
2018-05-23T05:27:44.371Z,9.57
2018-05-23T05:28:50.141Z,9.90
2018-05-23T05:29:56.031Z,9.73
2018-05-23T05:31:01.807Z,9.25
2018-05-23T05:32:07.568Z,9.40
2018-05-23T05:33:13.333Z,9.48
2018-05-23T05:34:19.101Z,10.23
2018-05-23T05:35:24.875Z,10.60
2018-05-23T05:36:30.661Z,8.95
2018-05-23T05:37:37.186Z,10.40
2018-05-23T05:38:43.028Z,9.57
2018-05-23T05:39:49.696Z,10.25
2018-05-23T05:40:55.467Z,10.40
2018-05-23T05:42:01.554Z,9.07
2018-05-23T05:43:07.366Z,9.60
2018-05-23T05:44:14.448Z,9.63
2018-05-23T05:45:20.059Z,9.68
2018-05-23T05:46:25.823Z,9.15
2018-05-23T05:47:32.363Z,9.48
2018-05-23T05:48:40.332Z,9.55
2018-05-23T05:49:46.468Z,9.68
2018-05-23T05:50:52.216Z,9.63
2018-05-23T05:51:57.995Z,10.32
2018-05-23T05:53:04.548Z,10.23
2018-05-23T05:54:10.319Z,10.35
2018-05-23T05:55:16.071Z,9.18
2018-05-23T05:56:21.827Z,9.88
2018-05-23T05:57:27.255Z,9.55
2018-05-23T05:58:33.803Z,9.88
2018-05-23T05:59:39.572Z,10.73
2018-05-23T06:00:45.326Z,9.60
2018-05-23T06:01:51.097Z,9.27
2018-05-23T06:02:57.833Z,10.00
2018-05-23T06:04:03.612Z,10.15
2018-05-23T06:05:10.132Z,9.27
2018-05-23T06:06:15.887Z,9.15
2018-05-23T06:07:21.637Z,8.95
2018-05-23T06:08:27.389Z,8.75
2018-05-23T06:09:33.215Z,9.43
2018-05-23T06:10:39.141Z,9.13
2018-05-23T06:11:44.901Z,8.95
2018-05-23T06:12:50.654Z,9.20
2018-05-23T06:13:56.411Z,8.57
2018-05-23T06:15:02.958Z,8.52
2018-05-23T06:16:08.723Z,8.82
2018-05-23T06:17:15.071Z,9.43
2018-05-23T06:18:21.591Z,9.02
2018-05-23T06:19:27.352Z,9.00
2018-05-23T06:20:33.139Z,8.73
2018-05-23T06:21:38.890Z,8.93
2018-05-23T06:22:44.634Z,8.30
2018-05-23T06:23:50.727Z,8.70
2018-05-23T06:24:56.479Z,8.82
2018-05-23T06:26:02.253Z,8.57
2018-05-23T06:27:07.996Z,8.63
2018-05-23T06:28:13.744Z,8.82
2018-05-23T06:29:19.492Z,8.18
2018-05-23T06:30:25.270Z,9.10
2018-05-23T06:31:31.220Z,8.45
2018-05-23T06:32:36.987Z,8.68
2018-05-23T06:33:43.550Z,7.82
2018-05-23T06:34:49.323Z,8.70
2018-05-23T06:35:55.082Z,8.40
2018-05-23T06:37:00.873Z,9.18
2018-05-23T06:38:07.391Z,7.80
2018-05-23T06:39:13.155Z,7.53
2018-05-23T06:40:18.916Z,7.15
2018-05-23T06:41:25.432Z,8.48
2018-05-23T06:42:31.198Z,8.60
2018-05-23T06:43:37.007Z,7.55
2018-05-23T06:44:43.715Z,7.65
2018-05-23T06:45:50.265Z,7.60
2018-05-23T06:46:56.013Z,8.25
2018-05-23T06:48:01.779Z,8.20
2018-05-23T06:49:07.523Z,7.85
2018-05-23T06:50:13.271Z,7.55
2018-05-23T06:51:19.023Z,7.60
2018-05-23T06:52:24.779Z,7.60
2018-05-23T06:53:30.557Z,8.07
2018-05-23T06:54:37.082Z,7.55
2018-05-23T06:55:42.904Z,6.90
2018-05-23T06:56:48.794Z,7.28
2018-05-23T06:57:54.563Z,6.82
2018-05-23T06:59:01.113Z,6.45
2018-05-23T07:00:07.629Z,6.60
2018-05-23T07:01:13.375Z,6.55
2018-05-23T07:02:19.115Z,6.65
2018-05-23T07:03:24.866Z,6.50
2018-05-23T07:04:30.641Z,7.07
2018-05-23T07:05:37.174Z,8.60
2018-05-23T07:06:42.955Z,7.82
2018-05-23T07:07:48.723Z,8.88
2018-05-23T07:08:54.483Z,7.78
2018-05-23T07:10:00.259Z,6.37
2018-05-23T07:11:06.112Z,6.15
2018-05-23T07:12:12.007Z,6.05
2018-05-23T07:13:17.751Z,6.90
2018-05-23T07:14:23.509Z,6.03
2018-05-23T07:15:29.308Z,7.40
2018-05-23T07:16:35.116Z,7.03
2018-05-23T07:17:40.877Z,7.90
2018-05-23T07:18:47.443Z,8.00
2018-05-23T07:19:53.707Z,6.85
2018-05-23T07:21:00.337Z,6.03
2018-05-23T07:22:06.086Z,6.50
2018-05-23T07:23:12.608Z,5.90
2018-05-23T07:24:18.366Z,5.57
2018-05-23T07:25:24.117Z,5.60
2018-05-23T07:26:29.919Z,5.10
2018-05-23T07:27:35.659Z,5.80
2018-05-23T07:28:41.405Z,5.60
2018-05-23T07:29:47.179Z,5.95
2018-05-23T07:30:52.942Z,5.05
2018-05-23T07:31:58.714Z,5.25
2018-05-23T07:33:04.465Z,6.07
2018-05-23T07:34:10.219Z,5.53
2018-05-23T07:35:15.987Z,4.95
2018-05-23T07:36:21.731Z,5.32
2018-05-23T07:37:28.282Z,5.53
2018-05-23T07:38:34.031Z,5.93
2018-05-23T07:39:39.766Z,5.32
2018-05-23T07:40:45.508Z,6.45
2018-05-23T07:41:51.267Z,5.32
2018-05-23T07:42:57.037Z,5.30
2018-05-23T07:44:02.787Z,5.90
2018-05-23T07:45:09.339Z,4.95
2018-05-23T07:46:15.091Z,5.78
2018-05-23T07:47:21.604Z,4.95
2018-05-23T07:48:27.378Z,5.15
2018-05-23T07:49:33.131Z,5.37
2018-05-23T07:50:39.649Z,4.72
2018-05-23T07:51:45.427Z,4.97
2018-05-23T07:52:51.171Z,5.40
2018-05-23T07:53:57.711Z,5.22
2018-05-23T07:55:03.466Z,4.87
2018-05-23T07:56:09.241Z,4.50
2018-05-23T07:57:14.331Z,5.53
2018-05-23T07:58:20.073Z,4.90
2018-05-23T07:59:25.852Z,4.82
2018-05-23T08:00:31.609Z,5.20
2018-05-23T08:01:37.375Z,5.30
2018-05-23T08:02:43.186Z,5.15
2018-05-23T08:03:48.932Z,5.10
2018-05-23T08:04:54.708Z,5.07
2018-05-23T08:06:00.460Z,5.20
2018-05-23T08:07:05.875Z,5.25
2018-05-23T08:08:11.626Z,4.57
2018-05-23T08:09:17.268Z,4.70
2018-05-23T08:10:23.030Z,4.00
2018-05-23T08:11:29.559Z,4.40
2018-05-23T08:12:35.815Z,3.83
2018-05-23T08:13:42.066Z,3.87
2018-05-23T08:14:48.322Z,3.67
2018-05-23T08:15:54.578Z,4.30
2018-05-23T08:17:00.831Z,4.67
2018-05-23T08:18:06.742Z,4.47
2018-05-23T08:19:12.222Z,4.57
2018-05-23T08:20:17.711Z,4.30
2018-05-23T08:21:23.217Z,3.90
2018-05-23T08:22:28.751Z,4.53
2018-05-23T08:23:34.241Z,4.43
2018-05-23T08:24:40.506Z,4.23
2018-05-23T08:25:46.959Z,4.20
2018-05-23T08:26:53.223Z,4.63
2018-05-23T08:27:58.721Z,7.50
2018-05-23T08:29:04.229Z,4.23
2018-05-23T08:30:09.718Z,4.80
2018-05-23T08:31:15.987Z,4.47
2018-05-23T08:32:21.495Z,4.60
2018-05-23T08:33:27.746Z,4.33
2018-05-23T08:34:33.233Z,4.40
2018-05-23T08:35:38.724Z,4.57
2018-05-23T08:36:45.182Z,4.20
2018-05-23T08:37:50.678Z,4.70
2018-05-23T08:38:56.160Z,4.03
2018-05-23T08:40:02.420Z,4.60
2018-05-23T08:41:08.663Z,4.23
2018-05-23T08:42:14.918Z,5.27
2018-05-23T08:43:21.195Z,4.80
2018-05-23T08:44:26.943Z,4.55
2018-05-23T08:45:33.475Z,4.30
2018-05-23T08:46:39.219Z,4.78
2018-05-23T08:47:44.977Z,4.80
2018-05-23T08:48:50.768Z,4.85
2018-05-23T08:49:56.525Z,5.10
2018-05-23T08:51:02.279Z,5.62
2018-05-23T08:52:08.038Z,4.80
2018-05-23T08:53:13.783Z,4.47
2018-05-23T08:54:19.567Z,5.70
2018-05-23T08:55:25.316Z,4.55
2018-05-23T08:56:31.075Z,4.70
2018-05-23T08:57:36.837Z,4.78
2018-05-23T08:58:42.584Z,5.00
2018-05-23T08:59:48.363Z,4.78
2018-05-23T09:00:54.121Z,4.60
2018-05-23T09:01:59.873Z,5.28
2018-05-23T09:03:05.623Z,4.90
2018-05-23T09:04:11.167Z,5.30
2018-05-23T09:05:16.938Z,5.40
2018-05-23T09:06:22.686Z,4.97
2018-05-23T09:07:29.207Z,5.18
2018-05-23T09:08:34.964Z,5.70
2018-05-23T09:09:40.710Z,5.00
2018-05-23T09:10:46.491Z,4.90
2018-05-23T09:11:53.001Z,5.43
2018-05-23T09:12:58.747Z,5.18
2018-05-23T09:14:04.511Z,5.55
2018-05-23T09:15:11.027Z,4.90
2018-05-23T09:16:16.808Z,5.50
2018-05-23T09:17:22.567Z,5.43
2018-05-23T09:18:29.081Z,4.97
2018-05-23T09:19:34.836Z,5.50
2018-05-23T09:20:40.600Z,5.78
2018-05-23T09:21:46.380Z,5.10
2018-05-23T09:22:52.138Z,5.15
2018-05-23T09:23:57.890Z,5.10
2018-05-23T09:25:03.651Z,4.43
2018-05-23T09:26:10.188Z,5.00
2018-05-23T09:27:15.992Z,4.70
2018-05-23T09:28:21.747Z,5.72
2018-05-23T09:29:27.496Z,5.40
2018-05-23T09:30:33.259Z,5.10
2018-05-23T09:31:39.017Z,5.07
2018-05-23T09:32:44.799Z,5.12
2018-05-23T09:33:50.548Z,4.55
2018-05-23T09:34:56.294Z,4.20
2018-05-23T09:36:02.059Z,4.05
2018-05-23T09:37:07.806Z,4.15
2018-05-23T09:38:13.571Z,5.15
2018-05-23T09:39:19.315Z,4.07
2018-05-23T09:40:25.066Z,4.10
2018-05-23T09:41:31.599Z,4.68
2018-05-23T09:42:37.347Z,4.07
2018-05-23T09:43:43.147Z,4.30
2018-05-23T09:44:48.940Z,4.68
2018-05-23T09:45:54.690Z,4.90
2018-05-23T09:47:00.457Z,4.40
2018-05-23T09:48:06.216Z,4.50
2018-05-23T09:49:11.990Z,4.25
2018-05-23T09:50:17.744Z,4.37
2018-05-23T09:51:23.491Z,3.90
2018-05-23T09:52:29.270Z,4.28
2018-05-23T09:53:35.035Z,3.40
2018-05-23T09:54:40.803Z,4.22
2018-05-23T09:55:46.565Z,4.40
2018-05-23T09:56:52.355Z,4.93
2018-05-23T09:57:58.124Z,4.60
2018-05-23T09:59:03.870Z,4.53
2018-05-23T10:00:09.645Z,4.15
2018-05-23T10:01:16.175Z,4.05
2018-05-23T10:02:22.693Z,4.30
2018-05-23T10:03:28.254Z,3.70
2018-05-23T10:04:34.272Z,4.25
2018-05-23T10:05:40.354Z,4.30
2018-05-23T10:06:46.108Z,4.03
2018-05-23T10:07:51.869Z,5.05
2018-05-23T10:08:58.411Z,3.95
2018-05-23T10:10:03.926Z,4.10
2018-05-23T10:11:09.704Z,5.05
2018-05-23T10:12:15.476Z,5.40
2018-05-23T10:13:21.240Z,4.80
2018-05-23T10:14:27.003Z,4.25
2018-05-23T10:15:32.753Z,5.40
2018-05-23T10:16:38.333Z,4.43
2018-05-23T10:17:44.842Z,4.40
2018-05-23T10:18:50.607Z,4.60
2018-05-23T10:19:56.372Z,3.90
2018-05-23T10:21:02.910Z,4.95
2018-05-23T10:22:08.487Z,4.55
2018-05-23T10:23:14.243Z,4.05
2018-05-23T10:24:20.073Z,4.05
2018-05-23T10:25:25.834Z,5.32
2018-05-23T10:26:31.576Z,5.22
2018-05-23T10:27:37.537Z,4.82
2018-05-23T10:28:43.318Z,3.90
2018-05-23T10:29:49.845Z,5.35
2018-05-23T10:30:55.615Z,3.78
2018-05-23T10:32:02.134Z,4.28
2018-05-23T10:33:07.680Z,5.35
2018-05-23T10:34:13.414Z,5.05
2018-05-23T10:35:18.961Z,4.90
2018-05-23T10:36:24.707Z,3.80
2018-05-23T10:37:30.459Z,3.62
2018-05-23T10:38:36.239Z,4.32
2018-05-23T10:39:42.000Z,4.80
2018-05-23T10:40:47.759Z,4.40
2018-05-23T10:41:53.510Z,4.25
2018-05-23T10:43:00.043Z,4.10
2018-05-23T10:44:05.491Z,4.20
2018-05-23T10:45:11.243Z,4.03
2018-05-23T10:46:17.101Z,4.18
2018-05-23T10:47:23.767Z,4.28
2018-05-23T10:48:30.300Z,4.10
2018-05-23T10:49:36.077Z,4.12
2018-05-23T10:50:42.144Z,4.97
2018-05-23T10:51:47.959Z,5.00
2018-05-23T10:52:53.869Z,4.03
2018-05-23T10:53:59.439Z,7.10
2018-05-23T10:55:04.879Z,3.40
2018-05-23T10:56:10.631Z,4.10
2018-05-23T10:57:17.251Z,6.03
2018-05-23T10:58:23.123Z,3.75
2018-05-23T10:59:28.870Z,3.90
2018-05-23T11:00:35.411Z,3.90
2018-05-23T11:01:41.179Z,4.10
2018-05-23T11:02:47.765Z,3.20
2018-05-23T11:03:53.673Z,4.70
2018-05-23T11:04:59.432Z,4.40
2018-05-23T11:06:05.978Z,4.35
2018-05-23T11:07:11.729Z,4.12
2018-05-23T11:08:18.244Z,4.18
2018-05-23T11:09:24.329Z,4.50
2018-05-23T11:10:30.075Z,4.93
2018-05-23T11:11:36.615Z,4.15
2018-05-23T11:12:42.382Z,3.92
2018-05-23T11:13:48.903Z,4.60
2018-05-23T11:14:54.690Z,4.30
2018-05-23T11:16:01.422Z,3.97
2018-05-23T11:17:07.196Z,5.28
2018-05-23T11:18:13.722Z,5.15
2018-05-23T11:19:19.481Z,4.45
2018-05-23T11:20:25.231Z,4.10
2018-05-23T11:21:31.761Z,4.75
2018-05-23T11:22:37.546Z,4.03
2018-05-23T11:23:43.294Z,4.10
2018-05-23T11:24:49.054Z,4.00
2018-05-23T11:25:54.812Z,4.57
2018-05-23T11:27:00.593Z,4.10
2018-05-23T11:28:06.567Z,4.20
2018-05-23T11:29:12.317Z,4.40
2018-05-23T11:30:18.090Z,4.93
2018-05-23T11:31:23.837Z,4.60
2018-05-23T11:32:29.596Z,5.12
2018-05-23T11:33:35.638Z,4.55
2018-05-23T11:34:41.400Z,4.60
2018-05-23T11:35:47.936Z,3.70
2018-05-23T11:36:53.686Z,4.18
2018-05-23T11:37:59.466Z,4.05
2018-05-23T11:39:04.359Z,4.20
2018-05-23T11:40:10.887Z,4.20
2018-05-23T11:41:16.819Z,3.60
2018-05-23T11:42:22.582Z,4.75
2018-05-23T11:43:28.342Z,4.80
2018-05-23T11:44:34.126Z,3.92
2018-05-23T11:45:39.887Z,3.83
2018-05-23T11:46:45.648Z,4.20
2018-05-23T11:47:51.412Z,4.35
2018-05-23T11:48:57.941Z,3.83
2018-05-23T11:50:03.945Z,4.80
2018-05-23T11:51:09.688Z,4.00
2018-05-23T11:52:15.505Z,3.67
2018-05-23T11:53:22.162Z,4.40
2018-05-23T11:54:27.933Z,4.55
2018-05-23T11:55:33.712Z,4.25
2018-05-23T11:56:39.469Z,4.40
2018-05-23T11:57:45.227Z,4.82
2018-05-23T11:58:50.982Z,5.03
2018-05-23T11:59:57.507Z,4.60
2018-05-23T12:01:03.281Z,4.50
2018-05-23T12:02:09.799Z,5.62
2018-05-23T12:03:15.566Z,4.18
2018-05-23T12:04:22.102Z,4.68
2018-05-23T12:05:27.856Z,4.68
2018-05-23T12:06:34.415Z,4.68
2018-05-23T12:07:39.876Z,5.05
2018-05-23T12:08:46.426Z,4.80
2018-05-23T12:09:52.170Z,5.07
2018-05-23T12:10:57.919Z,4.03
2018-05-23T12:12:03.691Z,4.75
2018-05-23T12:13:09.439Z,4.30
2018-05-23T12:14:15.192Z,4.80
2018-05-23T12:15:20.951Z,4.30
2018-05-23T12:17:32.670Z,4.50
2018-05-23T12:18:39.203Z,5.60
2018-05-23T12:19:45.472Z,5.05
2018-05-23T12:20:51.368Z,4.68
2018-05-23T12:21:57.131Z,4.32
2018-05-23T12:23:02.934Z,4.53
2018-05-23T12:24:09.462Z,4.90
2018-05-23T12:25:15.995Z,4.30
2018-05-23T12:26:21.755Z,4.30
2018-05-23T12:27:27.530Z,4.78
2018-05-23T12:28:34.199Z,4.70
2018-05-23T12:29:40.732Z,4.40
2018-05-23T12:30:46.504Z,4.60
2018-05-23T12:31:52.346Z,4.05
2018-05-23T12:32:58.147Z,4.85
2018-05-23T12:34:03.923Z,5.10
2018-05-23T12:35:09.773Z,5.03
2018-05-23T12:36:15.537Z,5.18
2018-05-23T12:37:21.304Z,4.40
2018-05-23T12:38:27.067Z,5.28
2018-05-23T12:39:32.851Z,5.70
2018-05-23T12:40:38.605Z,5.65
2018-05-23T12:41:44.360Z,5.30
2018-05-23T12:42:50.221Z,4.80
2018-05-23T12:43:55.985Z,5.10
2018-05-23T12:45:02.128Z,4.90
2018-05-23T12:46:07.879Z,4.60
2018-05-23T12:47:14.403Z,4.30
2018-05-23T12:48:20.165Z,4.47
2018-05-23T12:49:25.924Z,6.60
2018-05-23T12:50:32.130Z,4.78
2018-05-23T12:51:37.967Z,5.82
2018-05-23T12:52:43.737Z,5.47
2018-05-23T12:53:49.499Z,5.15
2018-05-23T12:54:55.268Z,6.47
2018-05-23T12:56:01.044Z,4.85
2018-05-23T12:57:06.807Z,5.12
2018-05-23T12:58:12.570Z,5.30
2018-05-23T12:59:19.723Z,5.30
2018-05-23T13:00:25.487Z,5.15
2018-05-23T13:01:32.040Z,4.82
2018-05-23T13:02:38.595Z,5.10
2018-05-23T13:03:46.051Z,4.80
2018-05-23T13:04:51.828Z,4.47
2018-05-23T13:05:58.373Z,5.18
2018-05-23T13:07:04.239Z,4.82
2018-05-23T13:08:10.788Z,5.22
2018-05-23T13:09:17.322Z,5.40
2018-05-23T13:10:23.100Z,4.75
2018-05-23T13:11:28.875Z,4.60
2018-05-23T13:12:34.495Z,3.95
2018-05-23T13:13:40.394Z,4.80
2018-05-23T13:14:46.161Z,4.78
2018-05-23T13:15:51.588Z,5.30
2018-05-23T13:16:57.348Z,5.60
2018-05-23T13:18:03.885Z,4.95
2018-05-23T13:19:09.639Z,4.72
2018-05-23T13:20:15.574Z,4.87
2018-05-23T13:21:21.664Z,3.97
2018-05-23T13:22:27.428Z,4.80
2018-05-23T13:23:33.225Z,4.60
2018-05-23T13:24:39.736Z,5.30
2018-05-23T13:25:45.501Z,4.65
2018-05-23T13:26:51.468Z,4.90
2018-05-23T13:27:57.994Z,4.70
2018-05-23T13:29:03.794Z,4.70
2018-05-23T13:30:10.220Z,4.80
2018-05-23T13:31:16.150Z,4.85
2018-05-23T13:32:21.915Z,5.97
2018-05-23T13:33:28.437Z,6.00
2018-05-23T13:34:34.459Z,5.18
2018-05-23T13:35:40.211Z,5.00
2018-05-23T13:36:46.012Z,5.53
2018-05-23T13:37:52.553Z,4.82
2018-05-23T13:38:58.317Z,5.62
2018-05-23T13:40:05.124Z,4.95
2018-05-23T13:41:10.883Z,5.60
2018-05-23T13:42:16.638Z,4.97
2018-05-23T13:43:22.412Z,4.97
2018-05-23T13:44:28.185Z,5.20
2018-05-23T13:45:33.964Z,4.53
2018-05-23T13:46:39.725Z,5.50
2018-05-23T13:47:46.253Z,5.20
2018-05-23T13:48:52.021Z,4.90
2018-05-23T13:49:57.832Z,5.28
2018-05-23T13:51:03.611Z,5.68
2018-05-23T13:52:10.134Z,4.95
2018-05-23T13:53:15.894Z,4.55
2018-05-23T13:54:22.419Z,5.10
2018-05-23T13:55:29.222Z,5.00
2018-05-23T13:56:35.081Z,4.90
2018-05-23T13:57:41.604Z,4.80
2018-05-23T13:58:47.363Z,4.80
2018-05-23T13:59:53.119Z,4.60
2018-05-23T14:00:59.652Z,5.03
2018-05-23T14:02:05.191Z,4.43
2018-05-23T14:03:10.982Z,6.18
2018-05-23T14:04:16.742Z,4.82
2018-05-23T14:05:22.503Z,5.45
2018-05-23T14:06:28.860Z,4.70
2018-05-23T14:07:34.744Z,5.10
2018-05-23T14:08:41.266Z,5.30
2018-05-23T14:09:47.046Z,4.15
2018-05-23T14:10:53.020Z,4.47
2018-05-23T14:11:58.775Z,4.65
2018-05-23T14:13:04.568Z,4.65
2018-05-23T14:14:11.090Z,4.95
2018-05-23T14:15:16.887Z,4.57
2018-05-23T14:16:22.829Z,4.95
2018-05-23T14:17:29.354Z,4.70
2018-05-23T14:18:35.147Z,4.93
2018-05-23T14:19:40.904Z,4.95
2018-05-23T14:20:46.683Z,4.30
2018-05-23T14:21:52.470Z,4.72
2018-05-23T14:22:58.263Z,4.53
2018-05-23T14:24:04.068Z,4.12
2018-05-23T14:25:09.828Z,4.90
2018-05-23T14:26:15.924Z,5.18
2018-05-23T14:27:22.447Z,4.62
2018-05-23T14:28:28.203Z,4.90
2018-05-23T14:29:34.015Z,4.82
2018-05-23T14:30:39.798Z,5.07
2018-05-23T14:31:45.576Z,6.20
2018-05-23T14:32:51.375Z,5.20
2018-05-23T14:33:57.154Z,5.12
2018-05-23T14:35:03.722Z,5.20
2018-05-23T14:36:09.495Z,4.45
2018-05-23T14:37:15.486Z,4.65
2018-05-23T14:38:22.014Z,5.22
2018-05-23T14:39:27.773Z,5.25